createdAt,value
2022-12-29T00:00:28.085Z,2.65
2022-12-29T00:02:57.555Z,2.60
2022-12-29T00:05:27.220Z,3.40
2022-12-29T00:07:56.488Z,3.00
2022-12-29T00:10:26.279Z,2.70
2022-12-29T00:13:13.521Z,2.40
2022-12-29T00:15:42.838Z,2.50
2022-12-29T00:18:12.138Z,2.87
2022-12-29T00:20:59.386Z,2.60
2022-12-29T00:23:46.455Z,2.20
2022-12-29T00:26:35.259Z,2.10
2022-12-29T00:29:22.822Z,2.10
2022-12-29T00:32:10.071Z,2.00
2022-12-29T00:34:57.265Z,1.77
2022-12-29T00:37:28.865Z,1.60
2022-12-29T00:40:16.345Z,1.60
2022-12-29T00:43:03.452Z,1.80
2022-12-29T00:45:32.678Z,1.82
2022-12-29T00:48:01.912Z,1.70
2022-12-29T00:50:31.514Z,1.90
2022-12-29T00:53:00.869Z,1.67
2022-12-29T00:55:30.402Z,2.02
2022-12-29T00:58:00.042Z,1.70
2022-12-29T01:00:29.597Z,1.90
2022-12-29T01:02:59.402Z,1.75
2022-12-29T01:05:28.875Z,1.65
2022-12-29T01:07:58.393Z,1.87
2022-12-29T01:10:27.992Z,1.65
2022-12-29T01:12:57.799Z,1.82
2022-12-29T01:15:27.036Z,1.80
2022-12-29T01:17:56.672Z,2.17
2022-12-29T01:20:26.034Z,2.02
2022-12-29T01:22:55.509Z,2.30
2022-12-29T01:25:24.717Z,2.30
2022-12-29T01:27:53.928Z,2.52
2022-12-29T01:30:23.167Z,2.25
2022-12-29T01:32:54.070Z,2.30
2022-12-29T01:35:23.349Z,2.50
2022-12-29T01:37:52.660Z,2.47
2022-12-29T01:40:22.328Z,2.42
2022-12-29T01:42:51.675Z,2.55
2022-12-29T01:45:21.044Z,2.40
2022-12-29T01:47:56.531Z,2.10
2022-12-29T01:50:28.707Z,1.60
2022-12-29T01:53:06.668Z,1.40
2022-12-29T01:55:40.019Z,1.10
2022-12-29T01:58:11.983Z,1.00
2022-12-29T02:00:41.497Z,1.25
2022-12-29T02:03:12.001Z,1.30
2022-12-29T02:05:47.283Z,2.10
2022-12-29T02:08:16.818Z,2.10
2022-12-29T02:10:47.197Z,2.22
2022-12-29T02:13:19.288Z,2.07
2022-12-29T02:16:09.641Z,2.45
2022-12-29T02:19:10.747Z,2.35
2022-12-29T02:22:09.034Z,2.05
2022-12-29T02:25:10.181Z,2.72
2022-12-29T02:28:01.389Z,2.17
2022-12-29T02:30:59.400Z,2.10
2022-12-29T02:33:38.544Z,2.12
2022-12-29T02:36:28.586Z,1.82
2022-12-29T02:39:03.466Z,1.82
2022-12-29T02:41:48.747Z,1.82
2022-12-29T02:44:29.878Z,1.70
2022-12-29T02:47:14.340Z,1.85
2022-12-29T02:49:55.115Z,2.42
2022-12-29T02:52:28.644Z,2.20
2022-12-29T02:54:57.958Z,2.77
2022-12-29T02:57:30.169Z,2.87
2022-12-29T03:00:14.144Z,3.10
2022-12-29T03:02:56.087Z,3.35
2022-12-29T03:05:31.134Z,3.08
2022-12-29T03:08:32.408Z,3.17
2022-12-29T03:11:09.152Z,3.20
2022-12-29T03:13:59.054Z,3.12
2022-12-29T03:16:31.838Z,3.40
2022-12-29T03:19:28.745Z,3.12
2022-12-29T03:22:18.748Z,3.00
2022-12-29T03:24:56.844Z,2.55
2022-12-29T03:27:33.160Z,2.77
2022-12-29T03:30:06.267Z,2.30
2022-12-29T03:32:38.430Z,2.00
2022-12-29T03:35:11.267Z,1.87
2022-12-29T03:37:43.720Z,2.22
2022-12-29T03:40:13.831Z,1.90
2022-12-29T03:42:44.051Z,1.65
2022-12-29T03:45:14.024Z,1.70
2022-12-29T03:47:43.684Z,1.70
2022-12-29T03:50:14.987Z,1.62
2022-12-29T03:52:44.766Z,1.52
2022-12-29T03:55:14.468Z,1.20
2022-12-29T03:57:44.785Z,1.35
2022-12-29T04:00:16.599Z,1.30
2022-12-29T04:02:49.638Z,1.82
2022-12-29T04:05:25.781Z,1.60
2022-12-29T04:07:56.643Z,1.40
2022-12-29T04:10:26.213Z,1.57
2022-12-29T04:12:57.125Z,1.30
2022-12-29T04:15:27.589Z,1.27
2022-12-29T04:17:56.970Z,1.22
2022-12-29T04:20:44.513Z,1.42
2022-12-29T04:23:14.407Z,1.35
2022-12-29T04:25:47.831Z,1.60
2022-12-29T04:28:19.635Z,1.60
2022-12-29T04:30:50.976Z,1.42
2022-12-29T04:33:23.010Z,1.27
2022-12-29T04:35:54.031Z,1.32
2022-12-29T04:38:25.054Z,1.03
2022-12-29T04:40:56.354Z,1.45
2022-12-29T04:43:25.933Z,1.22
2022-12-29T04:45:57.096Z,1.50
2022-12-29T04:48:33.901Z,1.62
2022-12-29T04:51:14.575Z,1.57
2022-12-29T04:53:44.465Z,1.90
2022-12-29T04:56:14.245Z,1.60
2022-12-29T04:58:44.122Z,1.75
2022-12-29T05:01:13.581Z,1.65
2022-12-29T05:03:43.472Z,2.37
2022-12-29T05:06:13.061Z,2.10
2022-12-29T05:08:42.543Z,2.10
2022-12-29T05:11:12.622Z,2.25
2022-12-29T05:13:42.346Z,2.17
2022-12-29T05:16:11.991Z,2.35
2022-12-29T05:18:41.381Z,2.10
2022-12-29T05:21:10.930Z,2.05
2022-12-29T05:23:41.885Z,2.58
2022-12-29T05:26:11.172Z,2.05
2022-12-29T05:28:48.184Z,1.90
2022-12-29T05:31:19.198Z,1.95
2022-12-29T05:33:50.414Z,1.62
2022-12-29T05:36:20.634Z,2.22
2022-12-29T05:38:51.776Z,2.05
2022-12-29T05:41:21.179Z,1.65
2022-12-29T05:43:54.960Z,2.02
2022-12-29T05:46:32.240Z,1.82
2022-12-29T05:49:03.496Z,1.90
2022-12-29T05:51:47.385Z,2.15
2022-12-29T05:54:18.248Z,2.05
2022-12-29T05:56:48.263Z,1.70
2022-12-29T05:59:17.964Z,1.98
2022-12-29T06:01:49.393Z,2.08
2022-12-29T06:04:19.301Z,1.75
2022-12-29T06:06:49.909Z,1.80
2022-12-29T06:09:21.100Z,1.70
2022-12-29T06:11:50.337Z,1.92
2022-12-29T06:14:21.442Z,1.80
2022-12-29T06:16:50.930Z,1.62
2022-12-29T06:19:20.599Z,1.82
2022-12-29T06:21:50.285Z,1.95
2022-12-29T06:24:20.085Z,1.80
2022-12-29T06:26:51.780Z,1.62
2022-12-29T06:29:21.695Z,1.60
2022-12-29T06:31:52.388Z,1.50
2022-12-29T06:34:22.378Z,2.08
2022-12-29T06:36:51.679Z,1.60
2022-12-29T06:39:21.267Z,2.05
2022-12-29T06:41:55.750Z,1.62
2022-12-29T06:44:26.678Z,2.42
2022-12-29T06:46:58.562Z,1.82
2022-12-29T06:49:27.834Z,1.70
2022-12-29T06:51:58.952Z,1.35
2022-12-29T06:54:28.365Z,1.52
2022-12-29T06:56:57.617Z,1.65
2022-12-29T06:59:27.140Z,1.77
2022-12-29T07:01:56.522Z,1.50
2022-12-29T07:04:26.011Z,2.02
2022-12-29T07:06:55.678Z,1.75
2022-12-29T07:09:24.885Z,1.75
2022-12-29T07:11:54.466Z,2.10
2022-12-29T07:14:23.671Z,2.05
2022-12-29T07:16:52.980Z,1.62
2022-12-29T07:19:22.187Z,1.75
2022-12-29T07:21:51.419Z,1.80
2022-12-29T07:24:20.678Z,2.15
2022-12-29T07:26:49.908Z,1.55
2022-12-29T07:29:19.643Z,1.87
2022-12-29T07:31:49.149Z,2.20
2022-12-29T07:34:18.962Z,1.80
2022-12-29T07:36:48.551Z,2.15
2022-12-29T07:39:18.271Z,2.35
2022-12-29T07:41:47.913Z,2.50
2022-12-29T07:44:19.235Z,2.08
2022-12-29T07:47:06.842Z,2.05
2022-12-29T07:49:36.316Z,2.42
2022-12-29T07:52:06.768Z,2.95
2022-12-29T07:54:36.411Z,2.15
2022-12-29T07:57:06.829Z,2.35
2022-12-29T07:59:36.347Z,2.00
2022-12-29T08:02:05.633Z,1.80
2022-12-29T08:04:35.316Z,2.10
2022-12-29T08:07:04.521Z,1.98
2022-12-29T08:09:33.831Z,1.95
2022-12-29T08:12:03.201Z,1.98
2022-12-29T08:14:32.429Z,1.65
2022-12-29T08:17:01.657Z,2.15
2022-12-29T08:19:31.317Z,1.95
2022-12-29T08:22:00.584Z,2.33
2022-12-29T08:24:29.818Z,1.82
2022-12-29T08:27:01.970Z,2.45
2022-12-29T08:29:30.619Z,2.45
2022-12-29T08:31:59.999Z,2.15
2022-12-29T08:34:29.656Z,2.15
2022-12-29T08:36:59.241Z,1.98
2022-12-29T08:39:28.865Z,2.22
2022-12-29T08:41:58.152Z,1.80
2022-12-29T08:44:27.566Z,2.50
2022-12-29T08:46:57.150Z,2.25
2022-12-29T08:49:26.738Z,2.40
2022-12-29T08:51:56.180Z,2.67
2022-12-29T08:54:25.497Z,2.40
2022-12-29T08:56:54.822Z,2.83
2022-12-29T08:59:25.895Z,2.27
2022-12-29T09:01:56.611Z,2.47
2022-12-29T09:04:26.877Z,1.90
2022-12-29T09:06:56.678Z,2.10
2022-12-29T09:09:26.096Z,2.42
2022-12-29T09:11:56.637Z,2.45
2022-12-29T09:14:26.367Z,2.55
2022-12-29T09:17:14.574Z,2.20
2022-12-29T09:19:44.389Z,2.35
2022-12-29T09:22:14.149Z,2.10
2022-12-29T09:24:43.728Z,2.67
2022-12-29T09:27:12.937Z,2.05
2022-12-29T09:29:43.079Z,2.47
2022-12-29T09:32:18.212Z,2.47
2022-12-29T09:34:43.559Z,2.10
2022-12-29T09:37:13.000Z,2.37
2022-12-29T09:39:42.793Z,2.60
2022-12-29T09:42:27.031Z,2.87
2022-12-29T09:45:08.084Z,2.52
2022-12-29T09:47:37.881Z,2.47
2022-12-29T09:50:25.003Z,2.50
2022-12-29T09:53:12.635Z,2.50
2022-12-29T09:55:45.064Z,2.85
2022-12-29T09:58:35.847Z,2.90
2022-12-29T10:01:17.366Z,3.58
2022-12-29T10:03:52.399Z,2.80
2022-12-29T10:07:27.359Z,3.35
2022-12-29T10:09:34.249Z,3.62
2022-12-29T10:12:15.607Z,3.80
2022-12-29T10:14:51.064Z,4.40
2022-12-29T10:17:32.479Z,4.97
2022-12-29T10:20:21.947Z,5.42
2022-12-29T10:23:10.711Z,5.05
2022-12-29T10:25:40.990Z,4.33
2022-12-29T10:28:19.196Z,4.80
2022-12-29T10:30:50.969Z,4.33
2022-12-29T10:33:29.455Z,4.08
2022-12-29T10:35:59.085Z,5.12
2022-12-29T10:38:31.132Z,5.00
2022-12-29T10:41:09.378Z,5.05
2022-12-29T10:43:53.530Z,5.08
2022-12-29T10:46:28.819Z,4.40
2022-12-29T10:48:58.148Z,5.08
2022-12-29T10:51:33.240Z,5.50
2022-12-29T10:54:09.386Z,5.75
2022-12-29T10:56:48.362Z,5.40
2022-12-29T10:59:20.732Z,5.00
2022-12-29T11:02:08.683Z,6.05
2022-12-29T11:04:57.905Z,4.97
2022-12-29T11:07:27.919Z,4.53
2022-12-29T11:09:57.313Z,5.12
2022-12-29T11:12:28.897Z,4.03
2022-12-29T11:15:13.611Z,4.17
2022-12-29T11:17:52.066Z,4.15
2022-12-29T11:20:29.675Z,3.45
2022-12-29T11:22:59.214Z,3.77
2022-12-29T11:25:28.780Z,3.47
2022-12-29T11:28:01.308Z,3.33
2022-12-29T11:33:05.444Z,3.60
2022-12-29T11:35:43.135Z,3.80
2022-12-29T11:38:24.593Z,4.03
2022-12-29T11:40:54.084Z,4.15
2022-12-29T11:43:38.672Z,3.42
2022-12-29T11:46:08.788Z,3.87
2022-12-29T11:48:42.645Z,3.50
2022-12-29T11:51:13.461Z,3.65
2022-12-29T11:53:47.952Z,3.90
2022-12-29T11:56:20.559Z,3.65
2022-12-29T12:01:24.581Z,13.48
2022-12-29T12:04:02.974Z,3.87
2022-12-29T12:06:35.138Z,4.53
2022-12-29T12:09:10.417Z,3.80
2022-12-29T12:14:55.830Z,4.37
2022-12-29T12:17:33.528Z,4.53
2022-12-29T12:20:06.651Z,4.20
2022-12-29T12:22:38.611Z,3.40
2022-12-29T12:25:17.282Z,3.40
2022-12-29T12:27:55.386Z,3.37
2022-12-29T12:30:26.507Z,3.20
2022-12-29T12:33:13.987Z,4.03
2022-12-29T12:36:03.577Z,3.65
2022-12-29T12:38:47.600Z,3.10
2022-12-29T12:41:38.181Z,2.80
2022-12-29T12:44:16.055Z,2.95
2022-12-29T12:46:57.272Z,2.95
2022-12-29T12:49:38.542Z,3.55
2022-12-29T12:52:11.192Z,3.65
2022-12-29T12:57:25.993Z,2.77
2022-12-29T13:00:07.502Z,3.00
2022-12-29T13:02:40.425Z,2.50
2022-12-29T13:05:24.301Z,2.33
2022-12-29T13:08:08.221Z,2.00
2022-12-29T13:10:59.022Z,1.87
2022-12-29T13:13:54.936Z,1.92
2022-12-29T13:16:45.661Z,1.60
2022-12-29T13:19:27.365Z,1.47
2022-12-29T13:22:17.637Z,1.62
2022-12-29T13:24:53.045Z,1.40
2022-12-29T13:27:33.557Z,1.35
2022-12-29T13:30:02.595Z,2.00
2022-12-29T13:32:46.786Z,1.60
2022-12-29T13:35:22.097Z,1.85
2022-12-29T13:38:01.086Z,2.67
2022-12-29T13:40:35.197Z,2.25
2022-12-29T13:43:05.127Z,2.37
2022-12-29T13:45:36.560Z,2.62
2022-12-29T13:48:21.292Z,2.80
2022-12-29T13:50:56.996Z,2.67
2022-12-29T13:53:38.061Z,3.22
2022-12-29T13:56:21.547Z,3.15
2022-12-29T13:58:53.928Z,3.30
2022-12-29T14:01:26.748Z,3.55
2022-12-29T14:03:58.352Z,3.22
2022-12-29T14:06:30.521Z,3.90
2022-12-29T14:09:05.658Z,3.35
2022-12-29T14:11:42.449Z,3.60
2022-12-29T14:14:30.702Z,3.45
2022-12-29T14:17:15.253Z,3.33
2022-12-29T14:19:46.350Z,3.12
2022-12-29T14:22:30.702Z,3.10
2022-12-29T14:24:56.010Z,3.15
2022-12-29T14:27:31.408Z,3.33
2022-12-29T14:30:00.704Z,3.27
2022-12-29T14:32:35.892Z,3.15
2022-12-29T14:35:42.506Z,2.87
2022-12-29T14:38:29.709Z,2.90
2022-12-29T14:41:21.188Z,3.33
2022-12-29T14:44:01.906Z,2.50
2022-12-29T14:46:51.772Z,4.47
2022-12-29T14:49:24.452Z,3.42
2022-12-29T14:51:57.255Z,3.55
2022-12-29T14:54:42.186Z,3.35
2022-12-29T14:57:31.797Z,2.45
2022-12-29T15:00:20.763Z,3.25
2022-12-29T15:02:53.210Z,2.90
2022-12-29T15:05:41.694Z,3.45
2022-12-29T15:08:11.470Z,2.58
2022-12-29T15:10:46.761Z,2.47
2022-12-29T15:13:21.971Z,2.60
2022-12-29T15:15:51.478Z,3.42
2022-12-29T15:18:28.942Z,2.25
2022-12-29T15:21:06.697Z,1.87
2022-12-29T15:23:37.365Z,2.00
2022-12-29T15:26:10.579Z,2.45
2022-12-29T15:28:45.666Z,1.72
2022-12-29T15:31:18.496Z,1.82
2022-12-29T15:33:50.253Z,1.57
2022-12-29T15:36:28.466Z,1.82
2022-12-29T15:38:57.873Z,2.62
2022-12-29T15:41:37.747Z,1.85
2022-12-29T15:44:15.921Z,2.00
2022-12-29T15:46:45.502Z,2.25
2022-12-29T15:49:16.770Z,2.98
2022-12-29T15:51:46.756Z,2.22
2022-12-29T15:54:21.476Z,1.82
2022-12-29T15:56:51.430Z,2.70
2022-12-29T15:59:35.124Z,2.00
2022-12-29T16:02:11.873Z,2.05
2022-12-29T16:04:48.482Z,2.10
2022-12-29T16:07:10.929Z,2.37
2022-12-29T16:09:46.925Z,2.05
2022-12-29T16:12:19.400Z,2.67
2022-12-29T16:14:54.597Z,2.42
2022-12-29T16:17:28.062Z,2.50
2022-12-29T16:20:10.118Z,1.85
2022-12-29T16:22:41.884Z,2.67
2022-12-29T16:25:35.280Z,2.23
2022-12-29T16:28:05.282Z,7.10
2022-12-29T16:30:38.296Z,6.28
2022-12-29T16:33:08.765Z,3.62
2022-12-29T16:35:48.684Z,2.75
2022-12-29T16:38:24.962Z,2.40
2022-12-29T16:41:04.946Z,2.55
2022-12-29T16:43:39.998Z,2.90
2022-12-29T16:46:23.755Z,2.40
2022-12-29T16:48:56.103Z,4.03
2022-12-29T16:51:34.000Z,2.95
2022-12-29T16:54:04.107Z,3.12
2022-12-29T16:56:37.515Z,10.10
2022-12-29T16:59:26.678Z,3.02
2022-12-29T17:01:56.428Z,4.70
2022-12-29T17:04:25.704Z,4.12
2022-12-29T17:06:55.187Z,2.80
2022-12-29T17:09:29.287Z,5.00
2022-12-29T17:12:08.624Z,2.50
2022-12-29T17:14:51.288Z,4.00
2022-12-29T17:17:29.525Z,3.10
2022-12-29T17:20:03.098Z,3.77
2022-12-29T17:22:33.209Z,3.62
2022-12-29T17:25:03.946Z,3.02
2022-12-29T17:27:42.565Z,3.92
2022-12-29T17:30:17.136Z,4.12
2022-12-29T17:32:49.540Z,5.30
2022-12-29T17:35:20.398Z,4.50
2022-12-29T17:37:50.267Z,5.03
2022-12-29T17:40:25.718Z,3.20
2022-12-29T17:42:57.282Z,8.50
2022-12-29T17:45:29.201Z,5.55
2022-12-29T17:48:02.392Z,3.35
2022-12-29T17:50:32.958Z,3.20
2022-12-29T17:53:04.806Z,2.67
2022-12-29T17:55:37.972Z,3.58
2022-12-29T17:58:26.534Z,5.42
2022-12-29T18:01:00.907Z,3.85
2022-12-29T18:03:38.831Z,3.25
2022-12-29T18:06:09.045Z,3.35
2022-12-29T18:08:40.126Z,3.40
2022-12-29T18:11:26.609Z,3.42
2022-12-29T18:13:55.915Z,3.70
2022-12-29T18:16:25.233Z,3.40
2022-12-29T18:18:54.533Z,4.20
2022-12-29T18:21:25.541Z,3.87
2022-12-29T18:23:54.951Z,5.45
2022-12-29T18:26:28.767Z,4.50
2022-12-29T18:28:59.967Z,5.15
2022-12-29T18:31:32.108Z,6.40
2022-12-29T18:34:03.666Z,4.33
2022-12-29T18:36:33.060Z,5.30
2022-12-29T18:39:02.429Z,4.65
2022-12-29T18:41:31.862Z,5.03
2022-12-29T18:44:01.509Z,5.42
2022-12-29T18:46:31.014Z,5.97
2022-12-29T18:49:00.272Z,4.70
2022-12-29T18:51:29.511Z,3.90
2022-12-29T18:53:58.854Z,4.15
2022-12-29T18:56:28.267Z,4.00
2022-12-29T18:58:57.668Z,3.52
2022-12-29T19:01:28.736Z,4.28
2022-12-29T19:03:58.590Z,3.60
2022-12-29T19:06:27.854Z,4.80
2022-12-29T19:08:57.311Z,4.42
2022-12-29T19:11:26.583Z,4.67
2022-12-29T19:13:56.184Z,4.75
2022-12-29T19:16:26.997Z,4.20
2022-12-29T19:19:08.954Z,4.03
2022-12-29T19:21:27.507Z,5.72
2022-12-29T19:23:57.137Z,5.50
2022-12-29T19:26:31.927Z,5.17
2022-12-29T19:29:01.592Z,4.95
2022-12-29T19:31:31.303Z,5.33
2022-12-29T19:34:03.233Z,4.78
2022-12-29T19:36:32.615Z,5.20
2022-12-29T19:39:01.972Z,5.65
2022-12-29T19:41:31.724Z,6.92
2022-12-29T19:44:01.107Z,8.45
2022-12-29T19:46:30.466Z,7.40
2022-12-29T19:49:01.072Z,5.95
2022-12-29T19:51:30.651Z,5.47
2022-12-29T19:53:59.968Z,6.95
2022-12-29T19:56:29.771Z,5.90
2022-12-29T19:58:59.504Z,5.47
2022-12-29T20:01:29.110Z,5.28
2022-12-29T20:03:58.658Z,5.12
2022-12-29T20:06:28.484Z,6.40
2022-12-29T20:08:57.754Z,5.17
2022-12-29T20:11:27.563Z,4.67
2022-12-29T20:13:58.422Z,5.92
2022-12-29T20:16:30.044Z,4.70
2022-12-29T20:18:59.420Z,6.33
2022-12-29T20:21:29.047Z,6.83
2022-12-29T20:23:58.288Z,5.30
2022-12-29T20:26:30.294Z,5.03
2022-12-29T20:29:00.100Z,5.90
2022-12-29T20:31:36.084Z,5.50
2022-12-29T20:34:07.649Z,5.72
2022-12-29T20:36:40.037Z,5.28
2022-12-29T20:39:12.753Z,5.83
2022-12-29T20:41:42.495Z,4.62
2022-12-29T20:44:12.335Z,5.08
2022-12-29T20:46:44.168Z,4.62
2022-12-29T20:49:12.789Z,4.67
2022-12-29T20:54:15.283Z,5.60
2022-12-29T20:56:45.778Z,4.28
2022-12-29T20:59:31.471Z,4.70
2022-12-29T21:01:47.110Z,3.85
2022-12-29T21:04:16.612Z,3.98
2022-12-29T21:06:45.989Z,4.20
2022-12-29T21:09:15.689Z,4.05
2022-12-29T21:11:46.708Z,3.92
2022-12-29T21:14:16.387Z,4.08
2022-12-29T21:16:48.637Z,5.05
2022-12-29T21:19:18.366Z,4.67
2022-12-29T21:21:47.923Z,4.45
2022-12-29T21:24:17.307Z,4.00
2022-12-29T21:26:46.711Z,3.80
2022-12-29T21:29:16.153Z,3.70
2022-12-29T21:31:46.143Z,3.75
2022-12-29T21:34:15.640Z,4.22
2022-12-29T21:36:45.101Z,4.08
2022-12-29T21:39:16.454Z,5.08
2022-12-29T21:41:45.926Z,5.15
2022-12-29T21:44:33.424Z,4.30
2022-12-29T21:47:02.986Z,4.67
2022-12-29T21:49:32.279Z,4.17
2022-12-29T21:52:01.830Z,3.72
2022-12-29T21:54:49.606Z,3.90
2022-12-29T21:57:38.124Z,4.40
2022-12-29T22:00:27.226Z,4.30
2022-12-29T22:03:22.508Z,4.83
2022-12-29T22:06:03.849Z,5.30
2022-12-29T22:08:50.946Z,5.35
2022-12-29T22:11:38.309Z,5.12
2022-12-29T22:14:07.603Z,4.72
2022-12-29T22:16:37.047Z,5.70
2022-12-29T22:19:08.112Z,5.58
2022-12-29T22:21:37.340Z,4.60
2022-12-29T22:24:08.904Z,4.28
2022-12-29T22:26:38.289Z,4.87
2022-12-29T22:29:07.630Z,4.78
2022-12-29T22:31:36.967Z,5.45
2022-12-29T22:34:06.266Z,8.25
2022-12-29T22:36:35.693Z,5.40
2022-12-29T22:39:05.260Z,4.92
2022-12-29T22:41:34.937Z,4.83
2022-12-29T22:44:05.098Z,4.35
2022-12-29T22:46:34.761Z,4.00
2022-12-29T22:49:04.205Z,4.58
2022-12-29T22:51:33.513Z,4.20
2022-12-29T22:54:02.981Z,3.92
2022-12-29T22:56:32.201Z,4.00
2022-12-29T22:59:01.426Z,3.98
2022-12-29T23:01:30.830Z,4.37
2022-12-29T23:04:25.957Z,4.53
2022-12-29T23:06:31.688Z,4.12
2022-12-29T23:09:02.090Z,3.83
2022-12-29T23:11:31.961Z,3.77
2022-12-29T23:14:01.606Z,3.70
2022-12-29T23:16:30.862Z,3.20
2022-12-29T23:19:00.545Z,3.42
2022-12-29T23:21:29.749Z,3.98
2022-12-29T23:24:01.199Z,7.10
2022-12-29T23:26:33.095Z,8.85
2022-12-29T23:29:04.187Z,6.70
2022-12-29T23:31:33.644Z,3.90
2022-12-29T23:34:04.933Z,4.28
2022-12-29T23:36:34.612Z,4.00
2022-12-29T23:39:04.758Z,4.12
2022-12-29T23:41:33.950Z,3.60
2022-12-29T23:44:03.423Z,3.00
2022-12-29T23:46:32.798Z,3.35
2022-12-29T23:49:02.634Z,4.90
2022-12-29T23:51:31.832Z,4.37
2022-12-29T23:54:01.084Z,3.42
2022-12-29T23:56:30.676Z,3.77
2022-12-29T23:59:00.341Z,4.25
